Flight Track Log - Related Links

Times and Time Zones

All times are in EDT time to prevent confusion due to time zone crossing. See the N84RT flight status page for this flight to view local times or setup timezone preferences in your user account.

Time Position Orientation Groundspeed Altitude Reporting Facility
EDT Latitude Longitude Course Direction KTS MPH feet Rate Location/Type
Tue 03:51:17 PM 30.5781 -87.0039 187° South 138 159 1,100  Level Jacksonville Center
Tue 03:51:54 PM 30.5508 -87.0075 187° South 162 186 1,200 545 Climbing Jacksonville Center
Tue 03:53:07 PM 30.5036 -86.9839 157° South 138 159 2,100 844 Climbing Jacksonville Center
Tue 03:54:02 PM 30.4725 -86.9753 167° South 137 158 3,000 124 Climbing Jacksonville Center
Tue 04:49:34 PM 29.8261 -84.1375 105° East 182 209 9,100 106 Climbing Jacksonville Center
Tue 04:50:00 PM 29.7846 -83.8685 105° East  Level FlightAware Approximate
Tue 04:50:34 PM 29.8142 -84.0847 105° East 182 209 9,000  Level Jacksonville Center
Tue 04:51:00 PM 29.7714 -83.8129 105° East  Level FlightAware Approximate
Tue 04:51:34 PM 29.8022 -84.0294 104° East 177 204 9,100  Level Jacksonville Center
Tue 04:52:00 PM 29.7582 -83.7573 105° East  Level FlightAware Approximate
Tue 04:52:34 PM 29.7922 -83.9767 102° East 177 204 9,100  Level Jacksonville Center
Tue 04:53:00 PM 29.7449 -83.7017 105° East  Level FlightAware Approximate
Tue 04:53:34 PM 29.7800 -83.9217 104° East 177 204 9,100  Level Jacksonville Center
Tue 04:54:34 PM 29.7700 -83.8689 102° East 177 204 9,100  Level Jacksonville Center
Tue 04:55:34 PM 29.7581 -83.8136 104° East 172 198 9,100  Level Jacksonville Center
Tue 04:56:34 PM 29.7478 -83.7586 102° East 172 198 9,100 -50 Level Jacksonville Center
Tue 04:57:34 PM 29.7358 -83.7058 105° East 172 198 9,000  Descending Jacksonville Center
Tue 04:58:34 PM 29.7256 -83.6508 102° East 167 192 9,100 50 Climbing Jacksonville Center
Tue 04:59:34 PM 29.7133 -83.5981 105° East 167 192 9,100  Level Jacksonville Center
Tue 05:00:34 PM 29.7011 -83.5431 104° East 167 192 9,100 -50 Level Jacksonville Center
Tue 05:01:34 PM 29.6889 -83.4903 105° East 167 192 9,000  Descending Jacksonville Center
Tue 05:02:34 PM 29.6786 -83.4353 102° East 167 192 9,100 50 Climbing Jacksonville Center
Tue 05:03:34 PM 29.6664 -83.3803 104° East 167 192 9,100  Level Jacksonville Center
Tue 05:04:34 PM 29.6542 -83.3275 105° East 167 192 9,100 -50 Level Jacksonville Center
Tue 05:05:34 PM 29.6439 -83.2725 102° East 167 192 9,000 50 Descending Jacksonville Center
Tue 05:06:34 PM 29.6336 -83.2175 102° East 173 199 9,200 100 Climbing Jacksonville Center
Tue 05:07:34 PM 29.6211 -83.1625 105° East 168 193 9,200  Level Jacksonville Center
Tue 05:08:34 PM 29.6086 -83.1075 105° East 168 193 9,200  Level Jacksonville Center
Tue 05:08:54 PM 29.6025 -83.0883 110° East 178 205 9,200 -100 Level Jacksonville Center
Tue 05:09:34 PM 29.5961 -83.0525 102° East 168 193 9,100  Descending Jacksonville Center
Tue 05:10:34 PM 29.5650 -83.0239 141° Southeast 153 176 9,200 50 Climbing Jacksonville Center
Tue 05:11:34 PM 29.5211 -83.0000 155° Southeast 159 183 9,200  Level Jacksonville Center
Tue 05:12:39 PM 29.4669 -82.9642 150° Southeast 172 198 9,200  Level Jacksonville Center
Tue 05:13:34 PM 29.4272 -82.9378 150° Southeast 173 199 9,200  Level Jacksonville Center
Tue 05:14:34 PM 29.3856 -82.9117 151° Southeast 178 205 9,200  Level Jacksonville Center
Tue 05:15:34 PM 29.3436 -82.8831 149° Southeast 178 205 9,200 -100 Level Jacksonville Center
Tue 05:16:34 PM 29.3042 -82.8569 150° Southeast 178 205 9,000 -250 Descending Jacksonville Center
Tue 05:17:34 PM 29.2603 -82.8258 148° Southeast 178 205 8,700 -343 Descending Jacksonville Center
Tue 05:17:44 PM 29.2539 -82.8211 147° Southeast 185 213 8,600 -400 Descending Jacksonville Center
Tue 05:18:34 PM 29.2183 -82.7928 145° Southeast 183 211 8,300 -295 Descending Jacksonville Center
Tue 05:18:45 PM 29.2100 -82.7928 180° South 182 209 8,300 -417 Level Jacksonville Center
Tue 05:19:46 PM 29.1619 -82.7642 153° Southeast 180 207 7,800 -495 Descending Jacksonville Center
Tue 05:20:34 PM 29.1308 -82.7428 149° Southeast 182 209 7,400 -417 Descending Jacksonville Center
Tue 05:21:41 PM 29.0786 -82.7072 149° Southeast 180 207 7,000 -422 Descending Jacksonville Center
Tue 05:22:42 PM 29.0367 -82.6811 151° Southeast 176 203 6,500 -492 Descending Jacksonville Center
Tue 05:23:43 PM 28.9928 -82.6553 153° Southeast 177 204 6,000 -541 Descending Jacksonville Center
Tue 05:24:44 PM 28.9489 -82.6292 152° Southeast 176 203 5,400 -375 Descending Jacksonville Center
Tue 05:25:51 PM 28.9031 -82.5983 150° Southeast 171 197 5,200 -94 Descending Jacksonville Center
Tue 05:26:52 PM 28.8653 -82.5703 147° Southeast 159 183 5,200  Level Jacksonville Center
Tue 05:27:53 PM 28.8256 -82.5467 152° Southeast 160 184 5,200  Level Jacksonville Center
Tue 05:28:42 PM 28.7922 -82.5278 154° Southeast 155 178 5,200 -33 Level Jacksonville Center
Tue 05:30:56 PM 28.7133 -82.4739 149° Southeast 156 180 5,100 -31 Descending Miami Center
Tue 05:31:57 PM 28.6747 -82.4500 152° Southeast 156 180 5,100  Level Miami Center
Tue 05:32:59 PM 28.6367 -82.4258 151° Southeast 156 180 5,100  Level Miami Center
Tue 05:34:01 PM 28.5992 -82.4019 151° Southeast 156 180 5,100  Level Miami Center
Tue 05:35:03 PM 28.5636 -82.3806 152° Southeast 156 180 5,100  Level Miami Center
Tue 05:36:04 PM 28.5161 -82.3553 155° Southeast 157 181 5,100  Level Miami Center
Tue 05:37:17 PM 28.4667 -82.3333 159° South 153 176 5,100  Level Tampa TRACON
Tue 05:38:11 PM 28.4333 -82.3000 139° Southeast 156 180 5,100  Level Tampa TRACON
Tue 05:38:59 PM 28.4000 -82.2833 156° South 153 176 5,100  Level Tampa TRACON
Tue 05:40:17 PM 28.3500 -82.2667 164° South 155 178 5,100  Level Tampa TRACON
Tue 05:40:53 PM 28.3333 -82.2500 139° Southeast 156 180 5,100 -333 Level Tampa TRACON
Tue 05:42:05 PM 28.2833 -82.2167 150° Southeast 171 197 4,500 -391 Descending Tampa TRACON
Tue 05:43:11 PM 28.2333 -82.2000 164° South 169 194 4,200 -350 Descending Tampa TRACON
Tue 05:44:05 PM 28.2000 -82.1833 156° South 163 188 3,800 -526 Descending Tampa TRACON
Tue 05:45:05 PM 28.1500 -82.1500 150° Southeast 168 193 3,200 -496 Descending Tampa TRACON
Tue 05:46:06 PM 28.1167 -82.1333 156° South 163 188 2,800 -381 Descending Tampa TRACON
Tue 05:47:11 PM 28.0667 -82.1167 164° South 153 176 2,400 -336 Descending Tampa TRACON
Tue 05:48:11 PM 28.0333 -82.1000 156° South 143 165 2,100 -350 Descending Tampa TRACON
Tue 05:49:11 PM 28.0000 -82.1000 180° South 105 121 1,700 -446 Descending Tampa TRACON
Tue 05:50:12 PM 27.9833 -82.0833 139° Southeast 97 112 1,200 -496 Descending Tampa TRACON
Tue 05:51:12 PM 27.9833 -82.0500 90° East 88 101 700 -500 Descending Tampa TRACON
Tue 05:53:00 PM 27.9833 -82.0167 156° South  Level FlightAware Approximate
Tue 06:00:00 PM 27.9889 -82.0186 156° South  Level Estimated

Login

Don't have an account? Register now (free) for customized features, flight alerts, and more!